Phoenix, Arizona
Traffic Map
Current Weather Conditions
Phoenix, Arizona
Broken Clouds
Broken Clouds
77°
Feels Like: 78°
Wind Chill: 77° Ceiling: 16000
Heat Index: 78° Visibility: 10mi
Dew Point: 42° Wind: 7mph
Humidity: 29% Direction: 90° (E)
Pressure: 29.79in Gusts: 0mph
Raw Report DataKPHX 191051Z 09006KT 10SM BKN160 BKN220 25/06 A2979 RMK AO2 SLP070 T02500056
Traffic Incident Summary
Active as of:
Severity:
Category:
InformationThere was an issue retrieving the traffic information for this location. Please try a different location or try again shortly.
Advertisements